createdAt,value
2022-07-26T00:00:28.837Z,95719.84
2022-07-26T00:02:55.658Z,95723.94
2022-07-26T00:05:22.617Z,95723.53
2022-07-26T00:07:49.365Z,95732.09
2022-07-26T00:10:16.295Z,95740.59
2022-07-26T00:12:43.129Z,95743.56
2022-07-26T00:15:11.647Z,95734.72
2022-07-26T00:17:39.297Z,95717.09
2022-07-26T00:20:07.391Z,95716.00
2022-07-26T00:22:34.287Z,95718.81
2022-07-26T00:25:03.709Z,95726.28
2022-07-26T00:27:30.796Z,95727.66
2022-07-26T00:29:57.480Z,95731.66
2022-07-26T00:32:24.196Z,95732.28
2022-07-26T00:34:51.716Z,95745.13
2022-07-26T00:37:20.457Z,95735.78
2022-07-26T00:39:48.123Z,95734.84
2022-07-26T00:42:14.873Z,95743.22
2022-07-26T00:44:44.137Z,95750.00
2022-07-26T00:47:12.271Z,95734.03
2022-07-26T00:49:39.096Z,95724.50
2022-07-26T00:52:07.027Z,95725.56
2022-07-26T00:54:34.363Z,95742.16
2022-07-26T00:57:01.283Z,95736.91
2022-07-26T00:59:28.619Z,95748.84
2022-07-26T01:01:55.658Z,95745.09
2022-07-26T01:04:22.674Z,95742.72
2022-07-26T01:06:50.132Z,95744.78
2022-07-26T01:09:18.473Z,95736.59
2022-07-26T01:11:45.980Z,95740.38
2022-07-26T01:14:14.740Z,95744.94
2022-07-26T01:16:46.434Z,95741.75
2022-07-26T01:19:15.430Z,95737.72
2022-07-26T01:21:48.309Z,95736.47
2022-07-26T01:24:16.654Z,95728.97
2022-07-26T01:26:43.617Z,95737.28
2022-07-26T01:29:10.852Z,95730.94
2022-07-26T01:31:37.787Z,95735.81
2022-07-26T01:34:04.739Z,95738.38
2022-07-26T01:36:31.695Z,95738.03
2022-07-26T01:38:59.343Z,95729.78
2022-07-26T01:41:37.436Z,95733.19
2022-07-26T01:44:07.554Z,95746.84
2022-07-26T01:46:36.100Z,95737.66
2022-07-26T01:49:04.016Z,95737.50
2022-07-26T01:51:30.988Z,95737.81
2022-07-26T01:53:57.749Z,95737.63
2022-07-26T01:56:24.496Z,95733.28
2022-07-26T01:58:51.348Z,95731.06
2022-07-26T02:01:38.729Z,95736.09
2022-07-26T02:04:05.219Z,95747.81
2022-07-26T02:06:32.988Z,95752.56
2022-07-26T02:09:01.850Z,95746.06
2022-07-26T02:11:28.807Z,95740.97
2022-07-26T02:13:55.988Z,95729.13
2022-07-26T02:16:22.832Z,95734.78
2022-07-26T02:18:49.615Z,95733.66
2022-07-26T02:21:16.319Z,95738.63
2022-07-26T02:23:43.493Z,95738.91
2022-07-26T02:26:10.289Z,95745.88
2022-07-26T02:28:36.937Z,95747.13
2022-07-26T02:31:03.691Z,95755.31
2022-07-26T02:33:30.595Z,95756.63
2022-07-26T02:35:57.664Z,95757.91
2022-07-26T02:38:25.140Z,95760.66
2022-07-26T02:40:52.916Z,95770.09
2022-07-26T02:43:19.982Z,95761.47
2022-07-26T02:46:00.940Z,95771.91
2022-07-26T02:48:32.546Z,95767.69
2022-07-26T02:50:59.554Z,95769.69
2022-07-26T02:53:26.415Z,95767.59
2022-07-26T02:55:53.129Z,95766.63
2022-07-26T02:58:22.756Z,95762.22
2022-07-26T03:00:49.416Z,95763.25
2022-07-26T03:03:16.464Z,95768.16
2022-07-26T03:05:43.421Z,95776.13
2022-07-26T03:08:10.284Z,95784.34
2022-07-26T03:10:36.975Z,95786.53
2022-07-26T03:13:03.695Z,95779.84
2022-07-26T03:15:30.559Z,95774.28
2022-07-26T03:17:57.346Z,95783.84
2022-07-26T03:20:24.820Z,95779.31
2022-07-26T03:22:51.552Z,95783.38
2022-07-26T03:25:18.253Z,95784.41
2022-07-26T03:27:45.029Z,95777.13
2022-07-26T03:30:12.330Z,95768.53
2022-07-26T03:32:39.316Z,95763.53
2022-07-26T03:35:07.245Z,95771.13
2022-07-26T03:37:46.031Z,95774.38
2022-07-26T03:40:17.354Z,95768.47
2022-07-26T03:42:45.361Z,95774.47
2022-07-26T03:45:14.061Z,95778.28
2022-07-26T03:47:41.149Z,95775.94
2022-07-26T03:50:08.984Z,95770.41
2022-07-26T03:52:35.682Z,95775.00
2022-07-26T03:55:22.403Z,95782.19
2022-07-26T03:57:49.372Z,95782.34
2022-07-26T04:00:16.206Z,95783.38
2022-07-26T04:02:43.142Z,95782.47
2022-07-26T04:05:10.966Z,95784.09
2022-07-26T04:07:52.625Z,95787.00
2022-07-26T04:10:21.574Z,95792.94
2022-07-26T04:12:49.155Z,95801.53
2022-07-26T04:15:17.215Z,95802.81
2022-07-26T04:17:44.115Z,95804.56
2022-07-26T04:20:12.558Z,95806.41
2022-07-26T04:22:42.123Z,95805.22
2022-07-26T04:25:10.075Z,95809.75
2022-07-26T04:27:37.728Z,95803.59
2022-07-26T04:30:12.362Z,95796.13
2022-07-26T04:32:41.479Z,95792.81
2022-07-26T04:35:08.708Z,95802.31
2022-07-26T04:37:40.282Z,95804.63
2022-07-26T04:40:08.402Z,95810.72
2022-07-26T04:42:35.525Z,95811.66
2022-07-26T04:45:08.009Z,95809.81
2022-07-26T04:47:37.526Z,95807.63
2022-07-26T04:50:04.909Z,95809.56
2022-07-26T04:52:31.649Z,95809.56
2022-07-26T04:55:00.575Z,95811.19
2022-07-26T04:57:27.223Z,95819.63
2022-07-26T05:00:16.843Z,95818.13
2022-07-26T05:02:41.064Z,95819.38
2022-07-26T05:05:08.614Z,95823.31
2022-07-26T05:07:46.886Z,95821.56
2022-07-26T05:10:15.724Z,95826.09
2022-07-26T05:12:42.576Z,95821.66
2022-07-26T05:15:13.691Z,95826.53
2022-07-26T05:17:43.091Z,95827.09
2022-07-26T05:20:12.391Z,95827.22
2022-07-26T05:22:39.276Z,95821.09
2022-07-26T05:25:07.225Z,95816.09
2022-07-26T05:27:33.939Z,95828.47
2022-07-26T05:30:00.804Z,95821.09
2022-07-26T05:32:30.361Z,95824.31
2022-07-26T05:34:57.139Z,95821.75
2022-07-26T05:37:23.841Z,95829.13
2022-07-26T05:39:50.615Z,95829.97
2022-07-26T05:42:17.333Z,95830.31
2022-07-26T05:44:44.065Z,95829.00
2022-07-26T05:47:11.619Z,95832.44
2022-07-26T05:49:40.090Z,95836.03
2022-07-26T05:52:08.802Z,95844.84
2022-07-26T05:54:36.189Z,95836.53
2022-07-26T05:57:03.609Z,95840.25
2022-07-26T05:59:30.497Z,95837.03
2022-07-26T06:01:57.510Z,95844.34
2022-07-26T06:04:26.624Z,95843.13
2022-07-26T06:06:55.071Z,95841.84
2022-07-26T06:09:24.375Z,95841.25
2022-07-26T06:11:51.712Z,95844.31
2022-07-26T06:14:19.531Z,95830.69
2022-07-26T06:16:47.272Z,95840.34
2022-07-26T06:19:14.329Z,95834.78
2022-07-26T06:21:42.742Z,95840.16
2022-07-26T06:24:09.933Z,95835.91
2022-07-26T06:26:37.152Z,95838.19
2022-07-26T06:29:04.413Z,95839.97
2022-07-26T06:31:31.368Z,95834.66
2022-07-26T06:33:58.104Z,95834.00
2022-07-26T06:36:28.665Z,95832.31
2022-07-26T06:38:57.887Z,95834.16
2022-07-26T06:41:24.860Z,95832.56
2022-07-26T06:43:51.852Z,95828.56
2022-07-26T06:46:20.925Z,95836.91
2022-07-26T06:48:52.515Z,95832.19
2022-07-26T06:51:19.659Z,95841.13
2022-07-26T06:53:46.575Z,95838.38
2022-07-26T06:56:15.063Z,95838.19
2022-07-26T06:58:42.857Z,95836.72
2022-07-26T07:01:09.989Z,95824.72
2022-07-26T07:03:36.922Z,95820.97
2022-07-26T07:06:04.228Z,95823.22
2022-07-26T07:08:31.032Z,95820.47
2022-07-26T07:11:00.942Z,95814.13
2022-07-26T07:13:29.646Z,95812.03
2022-07-26T07:15:56.360Z,95806.41
2022-07-26T07:18:23.408Z,95808.88
2022-07-26T07:20:50.314Z,95802.38
2022-07-26T07:23:17.016Z,95808.13
2022-07-26T07:25:44.756Z,95810.28
2022-07-26T07:28:11.778Z,95817.84
2022-07-26T07:30:38.459Z,95816.88
2022-07-26T07:33:05.489Z,95813.56
2022-07-26T07:35:32.866Z,95813.47
2022-07-26T07:37:59.749Z,95805.13
2022-07-26T07:40:26.918Z,95814.28
2022-07-26T07:42:53.623Z,95805.19
2022-07-26T07:45:20.455Z,95808.34
2022-07-26T07:47:47.372Z,95808.06
2022-07-26T07:50:14.099Z,95803.97
2022-07-26T07:52:40.931Z,95795.84
2022-07-26T07:55:36.590Z,95803.28
2022-07-26T07:57:55.150Z,95813.16
2022-07-26T08:00:27.201Z,95807.38
2022-07-26T08:02:55.338Z,95811.88
2022-07-26T08:05:22.231Z,95818.56
2022-07-26T08:07:49.866Z,95821.94
2022-07-26T08:10:19.899Z,95829.59
2022-07-26T08:12:51.637Z,95833.09
2022-07-26T08:15:19.401Z,95827.88
2022-07-26T08:17:51.088Z,95828.34
2022-07-26T08:20:21.027Z,95834.06
2022-07-26T08:22:50.842Z,95828.91
2022-07-26T08:25:17.704Z,95835.41
2022-07-26T08:27:55.096Z,95834.03
2022-07-26T08:30:29.765Z,95825.78
2022-07-26T08:32:56.722Z,95825.69
2022-07-26T08:35:23.950Z,95836.34
2022-07-26T08:37:50.935Z,95829.72
2022-07-26T08:40:18.088Z,95830.53
2022-07-26T08:42:52.972Z,95832.28
2022-07-26T08:45:24.784Z,95823.59
2022-07-26T08:48:16.149Z,95813.97
2022-07-26T08:50:40.884Z,95824.91
2022-07-26T08:53:09.531Z,95819.78
2022-07-26T08:58:28.285Z,95819.16
2022-07-26T09:01:05.281Z,95833.28
2022-07-26T09:03:32.618Z,95832.50
2022-07-26T09:06:21.085Z,95831.63
2022-07-26T09:08:51.192Z,95834.34
2022-07-26T09:11:23.909Z,95834.50
2022-07-26T09:13:53.240Z,95851.56
2022-07-26T09:16:20.008Z,95858.19
2022-07-26T09:18:46.856Z,95853.31
2022-07-26T09:21:29.778Z,95855.81
2022-07-26T09:23:56.983Z,95861.78
2022-07-26T09:26:27.115Z,95854.94
2022-07-26T09:29:12.439Z,95852.09
2022-07-26T09:31:39.925Z,95850.66
2022-07-26T09:34:08.287Z,95863.38
2022-07-26T09:36:51.780Z,95849.00
2022-07-26T09:39:33.609Z,95856.53
2022-07-26T09:42:28.602Z,95851.53
2022-07-26T09:44:57.680Z,95856.13
2022-07-26T09:47:37.152Z,95846.91
2022-07-26T09:50:15.944Z,95854.06
2022-07-26T09:53:07.577Z,95854.00
2022-07-26T09:55:55.907Z,95862.13
2022-07-26T09:58:24.132Z,95856.41
2022-07-26T10:00:51.455Z,95856.34
2022-07-26T10:03:18.568Z,95850.91
2022-07-26T10:05:46.972Z,95838.97
2022-07-26T10:08:14.464Z,95830.66
2022-07-26T10:10:44.041Z,95834.06
2022-07-26T10:13:11.823Z,95831.53
2022-07-26T10:15:44.558Z,95835.63
2022-07-26T10:18:39.012Z,95840.00
2022-07-26T10:21:25.242Z,95848.75
2022-07-26T10:24:02.680Z,95843.84
2022-07-26T10:26:32.302Z,95842.31
2022-07-26T10:29:26.688Z,95840.03
2022-07-26T10:32:02.693Z,95842.41
2022-07-26T10:34:35.196Z,95833.00
2022-07-26T10:37:09.460Z,95833.91
2022-07-26T10:39:37.388Z,95845.34
2022-07-26T10:42:09.334Z,95843.59
2022-07-26T10:44:44.991Z,95844.28
2022-07-26T10:47:18.919Z,95839.91
2022-07-26T10:49:56.048Z,95846.00
2022-07-26T10:52:32.033Z,95835.47
2022-07-26T10:55:03.268Z,95833.41
2022-07-26T10:57:39.300Z,95828.41
2022-07-26T11:00:31.057Z,95833.97
2022-07-26T11:03:00.074Z,95845.34
2022-07-26T11:05:33.676Z,95838.44
2022-07-26T11:08:10.801Z,95839.06
2022-07-26T11:10:45.898Z,95840.47
2022-07-26T11:13:23.914Z,95845.06
2022-07-26T11:15:54.300Z,95847.47
2022-07-26T11:18:27.779Z,95841.31
2022-07-26T11:20:56.740Z,95850.31
2022-07-26T11:23:36.396Z,95850.84
2022-07-26T11:26:19.374Z,95842.97
2022-07-26T11:28:59.868Z,95844.66
2022-07-26T11:31:52.066Z,95845.81
2022-07-26T11:34:24.474Z,95846.16
2022-07-26T11:36:53.478Z,95840.25
2022-07-26T11:39:38.473Z,95846.69
2022-07-26T11:42:07.950Z,95843.56
2022-07-26T11:44:35.306Z,95843.91
2022-07-26T11:47:12.624Z,95848.00
2022-07-26T11:52:31.253Z,95846.09
2022-07-26T11:54:58.325Z,95844.00
2022-07-26T11:57:32.177Z,95855.56
2022-07-26T12:00:00.632Z,95844.53
2022-07-26T12:02:38.509Z,95840.53
2022-07-26T12:05:21.182Z,95838.38
2022-07-26T12:07:58.280Z,95852.63
2022-07-26T12:10:25.244Z,95836.28
2022-07-26T12:13:13.812Z,95844.59
2022-07-26T12:15:52.521Z,95837.34
2022-07-26T12:18:28.104Z,95833.16
2022-07-26T12:21:08.428Z,95843.69
2022-07-26T12:23:44.166Z,95843.75
2022-07-26T12:26:28.492Z,95855.03
2022-07-26T12:29:27.507Z,95851.00
2022-07-26T12:32:03.026Z,95849.94
2022-07-26T12:34:30.438Z,95846.44
2022-07-26T12:37:17.764Z,95844.78
2022-07-26T12:40:10.305Z,95834.50
2022-07-26T12:42:42.224Z,95839.88
2022-07-26T12:45:11.580Z,95837.16
2022-07-26T12:47:43.619Z,95833.97
2022-07-26T12:50:13.056Z,95832.91
2022-07-26T12:52:40.610Z,95826.25
2022-07-26T12:55:10.309Z,95822.22
2022-07-26T12:57:37.236Z,95820.59
2022-07-26T13:00:05.879Z,95830.47
2022-07-26T13:02:32.801Z,95829.69
2022-07-26T13:05:01.701Z,95843.13
2022-07-26T13:07:28.457Z,95832.31
2022-07-26T13:10:22.536Z,95840.19
2022-07-26T13:12:41.960Z,95827.09
2022-07-26T13:15:09.413Z,95827.63
2022-07-26T13:17:36.192Z,95832.28
2022-07-26T13:20:02.951Z,95824.84
2022-07-26T13:22:29.719Z,95837.03
2022-07-26T13:24:56.478Z,95833.78
2022-07-26T13:27:23.122Z,95838.53
2022-07-26T13:29:49.877Z,95837.34
2022-07-26T13:32:17.422Z,95838.75
2022-07-26T13:34:44.141Z,95834.00
2022-07-26T13:37:10.827Z,95832.03
2022-07-26T13:39:37.501Z,95839.81
2022-07-26T13:42:04.377Z,95841.44
2022-07-26T13:44:33.695Z,95842.16
2022-07-26T13:47:02.182Z,95841.91
2022-07-26T13:49:30.097Z,95850.94
2022-07-26T13:52:00.013Z,95861.78
2022-07-26T13:54:34.637Z,95850.53
2022-07-26T13:57:07.798Z,95850.06
2022-07-26T13:59:34.530Z,95848.47
2022-07-26T14:02:01.360Z,95853.84
2022-07-26T14:04:29.080Z,95852.19
2022-07-26T14:06:56.090Z,95855.97
2022-07-26T14:09:22.829Z,95847.47
2022-07-26T14:11:49.562Z,95855.00
2022-07-26T14:14:16.932Z,95854.72
2022-07-26T14:16:43.968Z,95860.91
2022-07-26T14:19:14.969Z,95857.94
2022-07-26T14:21:47.472Z,95862.19
2022-07-26T14:24:27.529Z,95863.63
2022-07-26T14:26:58.883Z,95865.25
2022-07-26T14:29:26.420Z,95866.31
2022-07-26T14:31:53.423Z,95862.00
2022-07-26T14:34:20.221Z,95868.44
2022-07-26T14:36:46.979Z,95877.53
2022-07-26T14:39:13.753Z,95877.56
2022-07-26T14:41:40.665Z,95875.94
2022-07-26T14:44:07.666Z,95878.09
2022-07-26T14:46:34.521Z,95871.41
2022-07-26T14:49:01.298Z,95873.53
2022-07-26T14:51:28.281Z,95879.72
2022-07-26T14:53:55.010Z,95884.00
2022-07-26T14:56:22.038Z,95875.69
2022-07-26T14:58:48.797Z,95880.22
2022-07-26T15:01:16.598Z,95878.38
2022-07-26T15:03:43.365Z,95879.69
2022-07-26T15:06:10.117Z,95880.25
2022-07-26T15:08:36.954Z,95881.56
2022-07-26T15:11:05.590Z,95886.38
2022-07-26T15:13:32.359Z,95877.78
2022-07-26T15:15:59.258Z,95878.63
2022-07-26T15:18:26.248Z,95880.72
2022-07-26T15:20:53.360Z,95887.16
2022-07-26T15:23:20.112Z,95879.13
2022-07-26T15:25:48.777Z,95887.66
2022-07-26T15:28:16.040Z,95881.50
2022-07-26T15:30:42.866Z,95889.00
2022-07-26T15:33:09.703Z,95888.16
2022-07-26T15:35:37.186Z,95882.28
2022-07-26T15:38:04.304Z,95887.09
2022-07-26T15:40:31.088Z,95891.88
2022-07-26T15:42:57.937Z,95887.06
2022-07-26T15:45:25.035Z,95886.78
2022-07-26T15:47:55.157Z,95899.22
2022-07-26T15:50:25.098Z,95896.53
2022-07-26T15:52:51.809Z,95891.69
2022-07-26T15:55:20.722Z,95896.97
2022-07-26T15:57:47.886Z,95898.09
2022-07-26T16:00:15.831Z,95894.28
2022-07-26T16:02:42.824Z,95895.88
2022-07-26T16:05:10.384Z,95887.03
2022-07-26T16:07:38.446Z,95898.44
2022-07-26T16:10:05.774Z,95897.50
2022-07-26T16:12:33.527Z,95899.91
2022-07-26T16:15:00.627Z,95906.25
2022-07-26T16:17:27.589Z,95900.44
2022-07-26T16:19:54.283Z,95908.16
2022-07-26T16:22:21.010Z,95906.78
2022-07-26T16:24:48.082Z,95906.38
2022-07-26T16:27:14.859Z,95910.50
2022-07-26T16:29:41.620Z,95903.13
2022-07-26T16:32:10.096Z,95905.19
2022-07-26T16:34:37.376Z,95913.66
2022-07-26T16:39:31.188Z,95914.63
2022-07-26T16:41:59.837Z,95922.31
2022-07-26T16:44:30.056Z,95910.38
2022-07-26T16:46:57.337Z,95922.81
2022-07-26T16:49:24.149Z,95919.28
2022-07-26T16:51:51.019Z,95920.47
2022-07-26T16:54:17.769Z,95925.38
2022-07-26T16:56:44.563Z,95926.50
2022-07-26T16:59:11.446Z,95930.41
2022-07-26T17:01:38.607Z,95932.59
2022-07-26T17:04:05.649Z,95932.28
2022-07-26T17:06:32.535Z,95931.06
2022-07-26T17:09:00.831Z,95926.47
2022-07-26T17:11:27.856Z,95929.19
2022-07-26T17:13:54.639Z,95930.69
2022-07-26T17:16:24.623Z,95934.97
2022-07-26T17:18:52.557Z,95932.91
2022-07-26T17:21:19.283Z,95938.38
2022-07-26T17:23:46.066Z,95940.28
2022-07-26T17:26:12.973Z,95941.53
2022-07-26T17:28:39.603Z,95942.53
2022-07-26T17:31:06.537Z,95945.66
2022-07-26T17:33:33.375Z,95941.50
2022-07-26T17:36:03.283Z,95941.50
2022-07-26T17:38:33.689Z,95941.38
2022-07-26T17:41:01.010Z,95943.16
2022-07-26T17:43:36.859Z,95941.22
2022-07-26T17:46:04.333Z,95936.72
2022-07-26T17:48:31.101Z,95943.09
2022-07-26T17:50:57.834Z,95949.00
2022-07-26T17:53:34.552Z,95944.88
2022-07-26T17:56:02.407Z,95948.56
2022-07-26T17:58:29.378Z,95947.66
2022-07-26T18:00:56.142Z,95945.63
2022-07-26T18:03:23.347Z,95945.78
2022-07-26T18:05:51.022Z,95945.91
2022-07-26T18:08:18.015Z,95957.34
2022-07-26T18:10:50.505Z,95958.59
2022-07-26T18:13:18.086Z,95964.53
2022-07-26T18:15:45.491Z,95963.59
2022-07-26T18:18:12.248Z,95968.25
2022-07-26T18:20:39.387Z,95975.38
2022-07-26T18:23:06.220Z,95969.03
2022-07-26T18:25:32.966Z,95977.75
2022-07-26T18:28:04.690Z,95975.84
2022-07-26T18:30:33.932Z,95982.47
2022-07-26T18:33:01.443Z,95966.94
2022-07-26T18:35:28.520Z,95975.00
2022-07-26T18:37:55.439Z,95966.28
2022-07-26T18:40:23.713Z,95982.47
2022-07-26T18:42:51.007Z,95971.47
2022-07-26T18:45:17.837Z,95978.88
2022-07-26T18:47:44.669Z,95970.66
2022-07-26T18:50:16.921Z,95983.22
2022-07-26T18:52:44.970Z,95983.88
2022-07-26T18:55:13.840Z,95985.09
2022-07-26T18:57:42.218Z,95985.34
2022-07-26T19:00:11.909Z,95992.03
2022-07-26T19:02:38.686Z,95987.03
2022-07-26T19:05:06.083Z,95983.34
2022-07-26T19:07:33.098Z,95994.00
2022-07-26T19:10:00.363Z,95993.41
2022-07-26T19:12:29.915Z,96000.09
2022-07-26T19:14:56.701Z,96006.97
2022-07-26T19:17:23.455Z,96003.50
2022-07-26T19:19:50.178Z,96006.41
2022-07-26T19:22:16.901Z,96009.31
2022-07-26T19:24:43.888Z,96007.44
2022-07-26T19:27:11.090Z,96006.66
2022-07-26T19:29:38.115Z,96012.44
2022-07-26T19:32:05.544Z,96019.59
2022-07-26T19:34:32.431Z,96020.09
2022-07-26T19:36:59.329Z,96017.63
2022-07-26T19:39:35.009Z,96021.94
2022-07-26T19:42:02.532Z,96022.97
2022-07-26T19:44:29.484Z,96025.06
2022-07-26T19:46:57.955Z,96022.53
2022-07-26T19:49:25.148Z,96022.22
2022-07-26T19:51:52.014Z,96029.03
2022-07-26T19:54:18.737Z,96038.53
2022-07-26T19:56:45.445Z,96035.56
2022-07-26T19:59:12.630Z,96037.84
2022-07-26T20:01:39.665Z,96043.66
2022-07-26T20:04:06.532Z,96045.41
2022-07-26T20:06:33.399Z,96043.19
2022-07-26T20:09:00.140Z,96050.59
2022-07-26T20:11:28.295Z,96047.03
2022-07-26T20:13:55.643Z,96051.44
2022-07-26T20:16:22.627Z,96048.63
2022-07-26T20:18:49.315Z,96044.91
2022-07-26T20:21:16.196Z,96045.28
2022-07-26T20:23:42.959Z,96044.84
2022-07-26T20:26:12.588Z,96045.28
2022-07-26T20:28:39.378Z,96043.09
2022-07-26T20:31:06.169Z,96047.81
2022-07-26T20:33:33.092Z,96043.44
2022-07-26T20:35:59.955Z,96037.41
2022-07-26T20:38:26.649Z,96046.78
2022-07-26T20:40:53.436Z,96049.78
2022-07-26T20:43:22.442Z,96042.38
2022-07-26T20:45:49.682Z,96045.97
2022-07-26T20:48:16.470Z,96045.81
2022-07-26T20:50:43.192Z,96052.88
2022-07-26T20:53:10.001Z,96049.28
2022-07-26T20:55:37.128Z,96061.63
2022-07-26T20:58:03.991Z,96064.75
2022-07-26T21:00:30.903Z,96060.19
2022-07-26T21:02:59.464Z,96068.91
2022-07-26T21:05:30.832Z,96071.81
2022-07-26T21:08:00.014Z,96064.16
2022-07-26T21:10:29.352Z,96066.91
2022-07-26T21:13:01.075Z,96076.38
2022-07-26T21:15:28.982Z,96074.94
2022-07-26T21:17:56.126Z,96080.38
2022-07-26T21:20:22.895Z,96073.88
2022-07-26T21:22:49.694Z,96082.88
2022-07-26T21:25:16.499Z,96084.72
2022-07-26T21:27:43.939Z,96078.50
2022-07-26T21:30:11.103Z,96079.09
2022-07-26T21:32:37.873Z,96081.88
2022-07-26T21:35:05.207Z,96084.69
2022-07-26T21:37:32.107Z,96085.47
2022-07-26T21:40:00.855Z,96088.38
2022-07-26T21:42:28.051Z,96086.84
2022-07-26T21:44:55.967Z,96089.84
2022-07-26T21:47:23.323Z,96094.72
2022-07-26T21:49:50.048Z,96097.22
2022-07-26T21:52:16.791Z,96088.81
2022-07-26T21:54:45.157Z,96093.88
2022-07-26T21:57:11.874Z,96095.03
2022-07-26T21:59:38.515Z,96098.63
2022-07-26T22:02:05.313Z,96095.31
2022-07-26T22:04:32.099Z,96098.09
2022-07-26T22:06:58.842Z,96102.38
2022-07-26T22:09:25.565Z,96096.47
2022-07-26T22:11:53.057Z,96099.34
2022-07-26T22:14:19.763Z,96108.91
2022-07-26T22:16:47.840Z,96099.97
2022-07-26T22:19:15.609Z,96092.88
2022-07-26T22:21:42.374Z,96095.16
2022-07-26T22:24:09.143Z,96095.63
2022-07-26T22:26:36.257Z,96099.06
2022-07-26T22:29:03.870Z,96103.91
2022-07-26T22:31:30.730Z,96102.19
2022-07-26T22:33:57.483Z,96097.34
2022-07-26T22:36:24.169Z,96098.59
2022-07-26T22:38:50.943Z,96103.50
2022-07-26T22:41:17.831Z,96100.19
2022-07-26T22:43:44.535Z,96106.34
2022-07-26T22:46:11.408Z,96102.13
2022-07-26T22:48:39.035Z,96099.16
2022-07-26T22:51:07.222Z,96097.44
2022-07-26T22:53:33.962Z,96097.00
2022-07-26T22:56:00.654Z,96090.66
2022-07-26T22:58:27.371Z,96092.50
2022-07-26T23:00:54.158Z,96094.06
2022-07-26T23:03:21.763Z,96100.56
2022-07-26T23:05:50.538Z,96087.88
2022-07-26T23:11:06.181Z,96091.94
2022-07-26T23:13:32.986Z,96094.75
2022-07-26T23:16:01.150Z,96099.69
2022-07-26T23:18:28.952Z,96093.19
2022-07-26T23:20:55.680Z,96088.47
2022-07-26T23:23:22.386Z,96093.00
2022-07-26T23:25:52.097Z,96094.81
2022-07-26T23:28:24.792Z,96096.50
2022-07-26T23:31:03.330Z,96093.38
2022-07-26T23:33:50.943Z,96108.28
2022-07-26T23:36:16.900Z,96106.13
2022-07-26T23:38:43.601Z,96115.59
2022-07-26T23:41:11.102Z,96105.75
2022-07-26T23:43:37.895Z,96106.78
2022-07-26T23:46:04.562Z,96112.91
2022-07-26T23:48:31.312Z,96109.06
2022-07-26T23:50:58.102Z,96111.72
2022-07-26T23:53:26.769Z,96100.97
2022-07-26T23:55:54.212Z,96105.53
2022-07-26T23:58:21.166Z,96102.66
